Aérodrome :
LOGIN :

S'inscrire | Disclaimer

   EN    FR    IT 

 










Légende :    VFR   VFR Marginal   IFR   IFR Intensif   IFR Très Intensif
Visi : 
Plafond : 
>= 8 km
>= 3000ft
5 à 8 km
1000 à 3000 ft
1500m à 5 km
500 à 1000 ft
800 à 1500m
200 à 500 ft
< 800m
< 200 ft
Symboles :   Orages  Brouillard  Fortes neiges  Fortes précipitations  Vent > 20 kt
SIGMETs :   Divers  Orages  Givrage  Turbulence  Onde Orograph.  Cendres Volcan.







- Altitude de l'aérodrome : 297 ft


EGVP - Middle Wallop

DERNIER METAR :
  • 171350Z 06001KT 9999 FEW004 OVC018 15/12 Q1019 WHT TEMPO 4000 RADZ SCT006 YLO1

METARs EXPIRÉS :
  • 171250Z 14002KT 9999 -DZ SCT012 OVC018 14/12 Q1019 GRN TEMPO 4000 RADZ SCT006 YLO1
  • 171215Z 10003KT 9999 FEW006 OVC018 14/13 Q1019 WHT TEMPO 3000 -DZ BKN006 YLO1
  • 171150Z 10002KT 9999 6000S FEW006 OVC018 14/13 Q1019 WHT TEMPO 3000 -RADZ SCT006 YLO1
  • 171127Z 10003KT 9999 5000SE SCT006 SCT010 OVC017 14/13 Q1019 YLO1 TEMPO 3000 -DZ

TAF TAF EGVP
Valide du 17 à 12h jusqu'au 17 à 21h UTC


171056Z 1712/1721 36005KT 7000 BR BKN006
TEMPO 1712/1715 4000 RA SCT004
PROB40
TEMPO 1712/1714 3000 RADZ SCT002
PROB30
TEMPO 1712/1714 9999 NSW FEW006 BKN010
BECMG 1716/1718 9999 NSW BKN030
ATIS : +44 1980 674 142
Pas de NOTAMs connus pour ce terrain.



MET'MAP, la Météo Aéronautique d'un coup d'oeil ! - Copyright ORBIFLY Décembre 2007 - Disclaimer

ORBIFLY MET'MAP TEAM :

Programmation & Développement : Alexandra Zaïnal
Conception & Développement : Baudouin d'Aumeries
Co-Programmation & Développement : Marc-Olivier Méhu
Soutien technique & logistique : Manuel Goepfert

Contact : metmap@orbifly.com




SOURCES & CREDITS :

   NOAA